Time;durP1;ratioP1;P1;durP2;ratioP2;P2;SDS_P1;SDS_P2;PMS_P1;PMS_P2;Temp;Humidity;BMP_temperature;BMP_pressure;BME280_temperature;BME280_humidity;BME280_pressure;Samples;Min_cycle;Max_cycle;Signal;HPM_P1;HPM_P2
2022/06/28 00:01:02;;;;;;;48.58;28.27;;;12.10;99.90;;;;;;4647573;30;20042;-86
2022/06/28 00:03:28;;;;;;;41.35;28.25;;;12.00;99.90;;;;;;4648891;30;20077;-87
2022/06/28 00:05:54;;;;;;;42.90;26.55;;;12.00;99.90;;;;;;4648531;30;20411;-86
2022/06/28 00:08:19;;;;;;;45.72;29.30;;;12.00;99.90;;;;;;4648275;30;20090;-86
2022/06/28 00:10:45;;;;;;;70.95;32.25;;;12.00;99.90;;;;;;4648325;30;20042;-86
2022/06/28 00:13:10;;;;;;;98.45;33.65;;;11.90;99.90;;;;;;4649273;30;20073;-86
2022/06/28 00:18:21;;;;;;;84.75;30.45;;;11.90;99.90;;;;;;4661962;30;20416;-86
2022/06/28 00:20:46;;;;;;;62.88;30.17;;;11.90;99.90;;;;;;4648001;30;20054;-87
2022/06/28 00:23:12;;;;;;;40.13;25.05;;;11.90;99.90;;;;;;4663121;30;20073;-86
2022/06/28 00:25:38;;;;;;;76.70;29.92;;;11.80;99.90;;;;;;4662634;30;20503;-87
2022/06/28 00:28:03;;;;;;;28.17;25.25;;;11.80;99.90;;;;;;4647782;30;20043;-86
2022/06/28 00:30:29;;;;;;;49.15;27.17;;;11.80;99.90;;;;;;4646430;30;20129;-87
2022/06/28 00:32:55;;;;;;;37.88;29.30;;;11.80;99.90;;;;;;4661706;30;20055;-86
2022/06/28 00:35:20;;;;;;;53.58;28.90;;;11.70;99.90;;;;;;4648909;30;20125;-86
2022/06/28 00:37:46;;;;;;;37.10;29.27;;;11.80;99.90;;;;;;4648945;30;20046;-86
2022/06/28 00:40:12;;;;;;;43.83;28.88;;;11.70;99.90;;;;;;4649715;30;20060;-86
2022/06/28 00:42:39;;;;;;;51.92;31.45;;;11.80;99.90;;;;;;4650928;30;20050;-86
2022/06/28 00:45:06;;;;;;;36.15;30.40;;;11.70;99.90;;;;;;4651415;30;20046;-86
2022/06/28 00:47:32;;;;;;;40.25;31.88;;;11.70;99.90;;;;;;4650503;30;20034;-86
2022/06/28 00:49:59;;;;;;;46.30;32.00;;;11.70;99.90;;;;;;4650744;30;20411;-86
2022/06/28 00:52:25;;;;;;;35.55;30.10;;;11.80;99.90;;;;;;4651717;30;20054;-86
2022/06/28 00:54:51;;;;;;;38.10;30.83;;;11.80;99.90;;;;;;4651830;30;20046;-86
2022/06/28 00:57:17;;;;;;;42.92;28.80;;;11.70;99.90;;;;;;4650348;30;20105;-86
2022/06/28 00:59:42;;;;;;;48.08;29.05;;;11.70;99.90;;;;;;4650470;30;20049;-86
2022/06/28 01:02:08;;;;;;;56.25;31.48;;;11.70;99.90;;;;;;4651497;30;20050;-86
2022/06/28 01:04:35;;;;;;;43.10;28.70;;;11.60;99.90;;;;;;4651554;30;20101;-87
2022/06/28 01:07:00;;;;;;;35.85;28.33;;;11.60;99.90;;;;;;4651622;30;20046;-86
2022/06/28 01:09:26;;;;;;;33.15;29.48;;;11.70;99.90;;;;;;4648669;30;20092;-87
2022/06/28 01:11:53;;;;;;;35.60;28.55;;;11.60;99.90;;;;;;4651232;30;20085;-86
2022/06/28 01:14:18;;;;;;;49.60;28.67;;;11.60;99.90;;;;;;4665589;30;20085;-87
2022/06/28 01:16:45;;;;;;;32.20;26.10;;;11.60;99.90;;;;;;4651821;30;20419;-86
2022/06/28 01:19:11;;;;;;;28.00;25.00;;;11.60;99.90;;;;;;4663977;30;20469;-86
2022/06/28 01:21:37;;;;;;;43.42;25.67;;;11.50;99.90;;;;;;4678906;30;20126;-86
2022/06/28 01:24:04;;;;;;;44.10;24.13;;;11.50;99.90;;;;;;4650461;30;20381;-87
2022/06/28 01:26:30;;;;;;;30.15;26.95;;;11.50;99.90;;;;;;4650501;30;20039;-87
2022/06/28 01:28:56;;;;;;;33.22;27.45;;;11.40;99.90;;;;;;4665271;30;20051;-86
2022/06/28 01:31:23;;;;;;;62.53;30.45;;;11.50;99.90;;;;;;4650363;30;20160;-86
2022/06/28 01:33:50;;;;;;;45.00;25.80;;;11.40;99.90;;;;;;4651088;30;20050;-86
2022/06/28 01:36:16;;;;;;;36.78;26.50;;;11.40;99.90;;;;;;4665579;30;20057;-86
2022/06/28 01:38:42;;;;;;;52.65;26.17;;;11.30;99.90;;;;;;4650191;30;20050;-86
2022/06/28 01:41:08;;;;;;;34.22;26.88;;;11.20;99.90;;;;;;4650116;30;20077;-86
2022/06/28 01:43:36;;;;;;;37.10;25.67;;;11.30;99.90;;;;;;4650829;30;20050;-86
2022/06/28 01:46:05;;;;;;;38.83;27.95;;;11.20;99.90;;;;;;4665033;30;20050;-86
2022/06/28 01:48:32;;;;;;;28.73;22.17;;;11.10;99.90;;;;;;4650888;30;20506;-86
2022/06/28 01:50:58;;;;;;;33.45;24.75;;;11.10;99.90;;;;;;4648515;30;20407;-86
2022/06/28 01:53:23;;;;;;;30.17;26.10;;;11.20;99.90;;;;;;4650836;30;20054;-86
2022/06/28 01:55:49;;;;;;;38.22;29.75;;;11.10;99.90;;;;;;4650740;30;20050;-86
2022/06/28 01:58:16;;;;;;;68.38;32.97;;;11.10;99.90;;;;;;4650691;30;20090;-86
2022/06/28 02:00:42;;;;;;;80.05;34.45;;;11.10;99.90;;;;;;4648882;30;20477;-86
2022/06/28 02:03:07;;;;;;;38.47;30.50;;;11.10;99.90;;;;;;4648476;30;20129;-86
2022/06/28 02:05:33;;;;;;;37.42;30.85;;;11.10;99.90;;;;;;4650438;30;20053;-86
2022/06/28 02:07:59;;;;;;;44.13;28.75;;;11.10;99.90;;;;;;4649920;30;20038;-87
2022/06/28 02:10:25;;;;;;;29.00;25.48;;;11.10;99.90;;;;;;4649756;30;20057;-87
2022/06/28 02:12:50;;;;;;;36.60;26.55;;;11.00;99.90;;;;;;4649673;30;20133;-86
2022/06/28 02:15:17;;;;;;;52.78;27.83;;;11.00;99.90;;;;;;4650515;30;20046;-86
2022/06/28 02:17:44;;;;;;;27.52;24.42;;;11.00;99.90;;;;;;4649370;30;20049;-86
2022/06/28 02:20:11;;;;;;;43.55;27.13;;;11.00;99.90;;;;;;4649183;30;20058;-87
2022/06/28 02:22:37;;;;;;;46.20;28.85;;;10.90;99.90;;;;;;4650121;30;20053;-86
2022/06/28 02:25:03;;;;;;;34.58;27.00;;;10.90;99.90;;;;;;4664418;30;20043;-86
2022/06/28 02:27:29;;;;;;;45.80;27.30;;;10.90;99.90;;;;;;4649802;30;20490;-86
2022/06/28 02:29:54;;;;;;;37.75;27.45;;;10.90;99.90;;;;;;4649337;30;20138;-86
2022/06/28 02:32:20;;;;;;;43.08;28.35;;;10.80;99.90;;;;;;4650322;30;20047;-87
2022/06/28 02:40:23;;;;;;;27.40;23.92;;;10.70;99.90;;;;;;4675285;30;20136;-87
2022/06/28 02:42:57;;;;;;;59.15;27.52;;;10.80;99.90;;;;;;4663384;30;20522;-86
2022/06/28 02:45:25;;;;;;;33.70;25.80;;;10.70;99.90;;;;;;4649274;30;20051;-86
2022/06/28 02:47:51;;;;;;;32.58;27.17;;;10.70;99.90;;;;;;4649833;30;20518;-86
2022/06/28 02:50:17;;;;;;;30.58;24.65;;;10.70;99.90;;;;;;4649433;30;20065;-86
2022/06/28 02:52:42;;;;;;;26.75;23.88;;;10.70;99.90;;;;;;4650033;30;20050;-87
2022/06/28 02:55:09;;;;;;;39.42;27.30;;;10.70;99.90;;;;;;4649385;30;20039;-87
2022/06/28 02:57:36;;;;;;;44.67;27.85;;;10.70;99.90;;;;;;4648940;30;20108;-87
2022/06/28 03:00:07;;;;;;;31.83;24.15;;;10.70;99.90;;;;;;4648974;30;20554;-87
2022/06/28 03:02:37;;;;;;;41.75;25.50;;;10.60;99.90;;;;;;4649076;30;20137;-87
2022/06/28 03:05:08;;;;;;;27.13;23.13;;;10.60;99.90;;;;;;4648733;30;20142;-87
2022/06/28 03:07:34;;;;;;;34.10;23.95;;;10.60;99.90;;;;;;4648955;30;20050;-86
2022/06/28 03:10:00;;;;;;;42.30;25.48;;;10.50;99.90;;;;;;4662816;30;20064;-87
2022/06/28 03:12:26;;;;;;;31.38;22.55;;;10.60;99.90;;;;;;4647873;30;20109;-86
2022/06/28 03:14:52;;;;;;;46.83;23.63;;;10.60;99.90;;;;;;4645801;30;20051;-87
2022/06/28 03:17:18;;;;;;;38.42;23.50;;;10.60;99.90;;;;;;4660526;30;20045;-87
2022/06/28 03:19:43;;;;;;;29.30;21.23;;;10.60;99.90;;;;;;4646793;30;20447;-87
2022/06/28 03:22:09;;;;;;;46.05;24.65;;;10.50;99.90;;;;;;4663441;30;20054;-87
2022/06/28 03:24:34;;;;;;;29.67;22.55;;;10.40;99.90;;;;;;4648788;30;20046;-86
2022/06/28 03:27:00;;;;;;;56.13;25.80;;;10.50;99.90;;;;;;4648625;30;20038;-86
2022/06/28 03:29:25;;;;;;;46.90;27.55;;;10.50;99.90;;;;;;4648963;30;20084;-87
2022/06/28 03:31:51;;;;;;;39.58;24.05;;;10.50;99.90;;;;;;4656119;30;20049;-87
2022/06/28 03:34:19;;;;;;;61.63;25.45;;;10.60;99.90;;;;;;4647970;30;20101;-87
2022/06/28 03:36:45;;;;;;;32.55;24.73;;;10.50;99.90;;;;;;4663573;30;20109;-86
2022/06/28 03:39:12;;;;;;;46.53;28.00;;;10.60;99.90;;;;;;4648474;30;20160;-87
2022/06/28 03:41:37;;;;;;;61.10;28.08;;;10.60;99.90;;;;;;4648050;30;20512;-86
2022/06/28 03:44:03;;;;;;;62.60;28.60;;;10.60;99.90;;;;;;4649134;30;20097;-87
2022/06/28 03:46:29;;;;;;;99.50;33.40;;;10.60;99.90;;;;;;4649372;30;20042;-87
2022/06/28 03:48:55;;;;;;;35.42;23.85;;;10.60;99.90;;;;;;4649399;30;20052;-87
2022/06/28 03:51:21;;;;;;;37.78;26.00;;;10.60;99.90;;;;;;4648125;30;20034;-87
2022/06/28 03:53:46;;;;;;;49.25;27.30;;;10.70;99.90;;;;;;4662553;30;20046;-87
2022/06/28 03:56:12;;;;;;;38.80;24.65;;;10.70;99.90;;;;;;4649067;30;20137;-87
2022/06/28 03:58:38;;;;;;;30.85;23.50;;;10.70;99.90;;;;;;4648994;30;20188;-86
2022/06/28 04:01:04;;;;;;;76.45;27.35;;;10.70;99.90;;;;;;4648460;30;20062;-87
2022/06/28 04:03:29;;;;;;;28.08;21.35;;;10.70;99.90;;;;;;4647927;30;20141;-86
2022/06/28 04:05:55;;;;;;;83.65;28.13;;;10.70;99.90;;;;;;4649163;30;20129;-87
2022/06/28 04:08:21;;;;;;;35.22;24.52;;;10.70;99.90;;;;;;4648859;30;20046;-87
2022/06/28 04:10:48;;;;;;;27.20;22.73;;;10.80;99.90;;;;;;4648943;30;20054;-86
2022/06/28 04:13:14;;;;;;;35.80;25.23;;;10.80;99.90;;;;;;4663168;30;20068;-86
2022/06/28 04:15:39;;;;;;;46.45;27.77;;;10.80;99.90;;;;;;4652298;30;20518;-87
2022/06/28 04:18:06;;;;;;;63.30;30.40;;;10.80;99.90;;;;;;4663147;30;20050;-87
2022/06/28 04:20:32;;;;;;;53.97;28.88;;;10.90;99.90;;;;;;4659520;30;20419;-87
2022/06/28 04:22:58;;;;;;;45.08;28.08;;;10.90;99.90;;;;;;4650813;30;20125;-87
2022/06/28 04:25:24;;;;;;;60.03;30.65;;;11.00;99.90;;;;;;4651486;30;20129;-86
2022/06/28 04:27:49;;;;;;;54.63;29.60;;;11.00;99.90;;;;;;4666137;30;20064;-86
2022/06/28 04:30:15;;;;;;;33.22;26.08;;;11.10;99.90;;;;;;4651559;30;20042;-86
2022/06/28 04:32:41;;;;;;;39.17;27.02;;;11.20;99.90;;;;;;4650171;30;20542;-87
2022/06/28 04:35:07;;;;;;;35.10;25.00;;;11.50;99.90;;;;;;4651778;30;20057;-87
2022/06/28 04:37:32;;;;;;;43.00;24.80;;;11.60;99.90;;;;;;4652348;30;20439;-86
2022/06/28 04:39:58;;;;;;;54.10;24.50;;;11.80;99.90;;;;;;4651088;30;20061;-87
2022/06/28 04:42:24;;;;;;;36.22;21.88;;;12.00;99.90;;;;;;4650831;30;20051;-86
2022/06/28 04:44:49;;;;;;;25.40;19.40;;;12.10;99.90;;;;;;4652013;30;20057;-86
2022/06/28 04:47:15;;;;;;;23.40;16.95;;;12.30;99.90;;;;;;4650890;30;20047;-86
2022/06/28 04:49:40;;;;;;;25.98;16.83;;;12.60;99.90;;;;;;4650887;30;20114;-86
2022/06/28 04:52:07;;;;;;;16.95;14.77;;;12.90;99.90;;;;;;4664121;30;20046;-86
2022/06/28 04:54:33;;;;;;;13.25;11.98;;;13.10;99.90;;;;;;4664179;30;20050;-86
2022/06/28 04:56:58;;;;;;;11.73;10.52;;;13.50;99.90;;;;;;4651080;30;20054;-86
2022/06/28 04:59:24;;;;;;;14.35;10.63;;;13.50;99.90;;;;;;4650176;30;20054;-88
2022/06/28 05:01:49;;;;;;;14.98;10.00;;;13.70;99.90;;;;;;4649277;30;20511;-84
2022/06/28 05:04:15;;;;;;;12.15;9.23;;;13.90;99.90;;;;;;4665123;30;20447;-87
2022/06/28 05:06:41;;;;;;;11.38;9.18;;;14.00;99.90;;;;;;4651212;30;20222;-86
2022/06/28 05:09:06;;;;;;;10.73;8.90;;;14.20;99.90;;;;;;4650259;30;20054;-87
2022/06/28 05:11:32;;;;;;;13.20;8.18;;;14.40;99.90;;;;;;4650716;30;20050;-87
2022/06/28 05:13:59;;;;;;;11.70;7.90;;;14.60;99.90;;;;;;4663337;30;20090;-87
2022/06/28 05:16:24;;;;;;;13.23;7.60;;;14.90;99.90;;;;;;4650471;30;20475;-87
2022/06/28 05:18:50;;;;;;;14.10;7.28;;;15.10;99.90;;;;;;4651048;30;20053;-87
2022/06/28 05:21:16;;;;;;;10.93;7.30;;;15.30;99.90;;;;;;4651571;30;20137;-87
2022/06/28 05:23:41;;;;;;;9.70;6.53;;;15.60;99.90;;;;;;4650282;30;20058;-83
2022/06/28 05:26:07;;;;;;;10.85;6.78;;;15.80;99.90;;;;;;4648713;30;20072;-83
2022/06/28 05:28:32;;;;;;;7.43;5.88;;;15.90;99.90;;;;;;4662407;30;20129;-84
2022/06/28 05:30:58;;;;;;;9.50;5.97;;;15.90;99.90;;;;;;4663518;30;20515;-87
2022/06/28 05:33:24;;;;;;;9.80;5.43;;;15.80;99.90;;;;;;4649848;30;20072;-83
2022/06/28 05:35:50;;;;;;;9.98;5.75;;;15.90;99.90;;;;;;4650889;30;20046;-85
2022/06/28 05:38:15;;;;;;;6.30;5.28;;;16.00;99.90;;;;;;4650172;30;20054;-84
2022/06/28 05:40:41;;;;;;;7.78;4.95;;;16.10;99.90;;;;;;4665271;30;20141;-84
2022/06/28 05:43:08;;;;;;;9.98;4.72;;;16.20;99.90;;;;;;4663381;30;20519;-84
2022/06/28 05:45:33;;;;;;;7.60;4.97;;;16.40;99.90;;;;;;4643751;30;20042;-84
2022/06/28 05:47:59;;;;;;;7.93;4.43;;;16.60;99.90;;;;;;4650539;30;20058;-84
2022/06/28 05:50:25;;;;;;;11.60;4.45;;;16.70;99.90;;;;;;4665016;30;20125;-83
2022/06/28 05:52:51;;;;;;;8.52;4.35;;;16.80;99.90;;;;;;4650004;30;20047;-83
2022/06/28 05:55:17;;;;;;;11.23;5.20;;;16.80;99.90;;;;;;4644629;30;20058;-83
2022/06/28 05:57:42;;;;;;;11.27;4.30;;;16.70;99.90;;;;;;4661149;30;20039;-83
2022/06/28 06:00:09;;;;;;;7.32;3.97;;;16.50;99.90;;;;;;4649279;30;20046;-84
2022/06/28 06:02:35;;;;;;;9.15;4.63;;;16.40;99.90;;;;;;4645102;30;20419;-83
2022/06/28 06:05:02;;;;;;;10.18;4.30;;;16.20;99.90;;;;;;4649976;30;20039;-83
2022/06/28 06:07:29;;;;;;;10.32;4.68;;;16.10;99.90;;;;;;4649905;30;20042;-83
2022/06/28 06:09:55;;;;;;;7.85;4.07;;;15.90;99.90;;;;;;4640482;30;20053;-83
2022/06/28 06:12:21;;;;;;;11.98;4.68;;;15.70;99.90;;;;;;4659193;30;20047;-83
2022/06/28 06:14:46;;;;;;;9.27;5.40;;;15.60;99.90;;;;;;4650488;30;20061;-83
2022/06/28 06:17:12;;;;;;;8.25;4.65;;;15.60;99.90;;;;;;4649647;30;20136;-83
2022/06/28 06:19:37;;;;;;;9.55;5.07;;;15.50;99.90;;;;;;4648574;30;20057;-83
2022/06/28 06:22:03;;;;;;;12.70;5.00;;;15.40;99.90;;;;;;4657240;30;20569;-83
2022/06/28 06:24:29;;;;;;;9.88;5.10;;;15.40;99.90;;;;;;4649365;30;20045;-83
2022/06/28 06:26:54;;;;;;;8.23;5.00;;;15.30;99.90;;;;;;4649373;30;20129;-83
2022/06/28 06:29:20;;;;;;;9.70;5.40;;;15.30;99.90;;;;;;4649179;30;20066;-83
2022/06/28 06:31:46;;;;;;;12.13;6.07;;;15.20;99.90;;;;;;4642100;30;20073;-83
2022/06/28 06:34:13;;;;;;;11.57;6.00;;;15.20;99.90;;;;;;4663556;30;20062;-83
2022/06/28 06:36:39;;;;;;;9.10;5.88;;;15.20;99.90;;;;;;4642664;30;20051;-83
2022/06/28 06:39:04;;;;;;;11.52;6.00;;;15.20;99.90;;;;;;4656578;30;20089;-83
2022/06/28 06:41:30;;;;;;;12.27;5.90;;;15.10;99.90;;;;;;4649856;30;20050;-83
2022/06/28 06:43:56;;;;;;;13.13;5.78;;;15.20;99.90;;;;;;4649258;30;20101;-83
2022/06/28 06:46:21;;;;;;;9.95;5.35;;;15.30;99.90;;;;;;4656907;30;20050;-82
2022/06/28 06:48:47;;;;;;;13.63;5.50;;;15.30;99.90;;;;;;4663817;30;20527;-83
2022/06/28 06:51:13;;;;;;;12.88;4.93;;;15.30;99.90;;;;;;4649575;30;20098;-83
2022/06/28 06:53:38;;;;;;;9.07;5.38;;;15.30;99.90;;;;;;4649042;30;20097;-83
2022/06/28 06:56:04;;;;;;;10.48;5.10;;;15.30;99.90;;;;;;4649570;30;20113;-83
2022/06/28 06:58:30;;;;;;;10.20;5.20;;;15.40;99.90;;;;;;4648584;30;20514;-83
2022/06/28 07:00:57;;;;;;;13.93;5.85;;;15.40;99.90;;;;;;4644540;30;20569;-83
2022/06/28 07:03:23;;;;;;;14.50;5.90;;;15.50;99.90;;;;;;4648778;30;20555;-83
2022/06/28 07:05:49;;;;;;;13.25;6.30;;;15.50;99.90;;;;;;4649204;30;20130;-83
2022/06/28 07:08:14;;;;;;;11.63;5.28;;;15.60;99.90;;;;;;4641170;30;20089;-83
2022/06/28 07:10:40;;;;;;;15.63;5.50;;;15.70;99.90;;;;;;4649344;30;20085;-83
2022/06/28 07:13:06;;;;;;;11.75;5.85;;;15.80;99.90;;;;;;4655657;30;20043;-83
2022/06/28 07:15:31;;;;;;;14.95;5.55;;;15.90;99.90;;;;;;4642249;30;20050;-83
2022/06/28 07:17:57;;;;;;;13.90;5.53;;;16.00;99.90;;;;;;4641652;30;20425;-83
2022/06/28 07:20:23;;;;;;;14.18;5.32;;;16.10;99.90;;;;;;4649530;30;20396;-82
2022/06/28 07:22:48;;;;;;;11.40;5.50;;;16.20;99.90;;;;;;4647719;30;20050;-83
2022/06/28 07:25:14;;;;;;;16.27;5.97;;;16.40;99.90;;;;;;4648489;30;20041;-83
2022/06/28 07:27:40;;;;;;;11.40;5.22;;;16.50;99.90;;;;;;4643864;30;20136;-83
2022/06/28 07:30:06;;;;;;;11.93;5.70;;;16.70;99.90;;;;;;4645175;30;20053;-83
2022/06/28 07:32:32;;;;;;;16.48;5.03;;;16.80;99.90;;;;;;4659986;30;20058;-83
2022/06/28 07:34:57;;;;;;;11.68;5.00;;;16.90;99.90;;;;;;4649814;30;20046;-83
2022/06/28 07:37:23;;;;;;;19.88;5.03;;;17.00;99.90;;;;;;4649279;30;20047;-83
2022/06/28 07:39:49;;;;;;;12.50;4.75;;;17.10;99.90;;;;;;4650628;30;20385;-83
2022/06/28 07:42:14;;;;;;;16.83;4.68;;;17.20;99.90;;;;;;4664887;30;20046;-83
2022/06/28 07:44:40;;;;;;;12.40;5.15;;;17.80;99.90;;;;;;4651533;30;20039;-83
2022/06/28 07:47:06;;;;;;;8.90;3.92;;;18.30;99.90;;;;;;4646940;30;20090;-83
2022/06/28 07:52:33;;;;;;;9.38;3.85;;;19.30;99.90;;;;;;4670275;30;20102;-86
2022/06/28 07:55:00;;;;;;;11.38;4.07;;;20.00;99.90;;;;;;4656601;30;20522;-83
2022/06/28 07:57:27;;;;;;;10.10;3.03;;;20.80;99.90;;;;;;4654737;30;20054;-85
2022/06/28 07:59:53;;;;;;;8.60;2.97;;;21.20;99.90;;;;;;4654088;30;20050;-82
2022/06/28 08:02:19;;;;;;;8.90;2.92;;;21.10;99.90;;;;;;4665978;30;20423;-83
2022/06/28 08:04:45;;;;;;;12.70;2.72;;;21.20;99.90;;;;;;4664363;30;20104;-81
2022/06/28 08:07:10;;;;;;;11.35;2.97;;;21.60;99.90;;;;;;4669304;30;20046;-83
2022/06/28 08:09:36;;;;;;;10.10;3.05;;;21.60;99.90;;;;;;4665741;30;20499;-83
2022/06/28 08:12:02;;;;;;;9.00;2.88;;;21.50;99.90;;;;;;4654702;30;20192;-82
2022/06/28 08:14:29;;;;;;;8.50;2.42;;;21.90;99.90;;;;;;4654283;30;20050;-84
2022/06/28 08:16:55;;;;;;;8.50;2.25;;;22.20;99.90;;;;;;4654439;30;20050;-83
2022/06/28 08:19:20;;;;;;;7.05;2.40;;;22.00;99.90;;;;;;4668843;30;20054;-83
2022/06/28 08:21:47;;;;;;;3.90;2.10;;;21.70;99.90;;;;;;4657044;30;20102;-84
2022/06/28 08:24:13;;;;;;;6.65;2.30;;;21.20;99.90;;;;;;4668084;30;20109;-82
2022/06/28 08:26:42;;;;;;;7.88;2.30;;;21.20;99.90;;;;;;4654146;30;20070;-83
2022/06/28 08:29:15;;;;;;;6.90;2.65;;;21.60;99.90;;;;;;4654207;30;20388;-83
2022/06/28 08:31:41;;;;;;;;;;;21.60;99.90;;;;;;4668812;30;20054;-82
2022/06/28 08:34:07;;;;;;;6.95;2.72;;;21.80;99.90;;;;;;4663191;30;19923;-84
2022/06/28 08:36:33;;;;;;;8.82;2.50;;;22.40;99.90;;;;;;4653182;30;20495;-83
2022/06/28 08:38:59;;;;;;;8.38;2.65;;;23.00;99.90;;;;;;4656176;30;20113;-83
2022/06/28 08:41:27;;;;;;;7.55;2.35;;;23.60;99.90;;;;;;4655602;30;20057;-83
2022/06/28 08:43:54;;;;;;;6.32;2.50;;;23.90;99.90;;;;;;4653213;30;20047;-83
2022/06/28 08:46:21;;;;;;;8.07;2.65;;;24.10;99.90;;;;;;4668313;30;20053;-82
2022/06/28 08:48:52;;;;;;;8.43;2.70;;;24.10;99.90;;;;;;4666684;30;20192;-84
2022/06/28 08:51:19;;;;;;;6.43;2.15;;;24.40;99.90;;;;;;4653973;30;20137;-83
2022/06/28 08:53:48;;;;;;;6.93;2.00;;;24.70;99.90;;;;;;4653261;30;20046;-83
2022/06/28 08:56:15;;;;;;;8.27;2.05;;;24.70;99.90;;;;;;4654098;30;20054;-83
2022/06/28 08:58:42;;;;;;;6.00;1.30;;;24.60;99.90;;;;;;4654091;30;20121;-83
2022/06/28 09:01:12;;;;;;;5.45;1.42;;;25.00;99.90;;;;;;4659572;30;20057;-81
2022/06/28 09:03:38;;;;;;;4.93;1.13;;;25.20;99.90;;;;;;4664746;30;20043;-81
2022/06/28 09:06:05;;;;;;;7.22;1.27;;;25.30;99.90;;;;;;4663379;30;20499;-84
2022/06/28 09:08:30;;;;;;;3.78;0.98;;;25.40;99.90;;;;;;4663914;30;20407;-82
2022/06/28 09:10:56;;;;;;;4.60;1.25;;;25.30;99.90;;;;;;4663953;30;20042;-85
2022/06/28 09:13:22;;;;;;;4.25;0.90;;;25.40;99.90;;;;;;4651679;30;20085;-84
2022/06/28 09:15:47;;;;;;;6.20;1.15;;;25.50;99.90;;;;;;4647539;30;20042;-84
2022/06/28 09:18:13;;;;;;;4.75;0.98;;;25.60;99.90;;;;;;4663852;30;20448;-83
2022/06/28 09:20:39;;;;;;;5.00;1.25;;;25.60;99.90;;;;;;4664597;30;20047;-82
2022/06/28 09:23:23;;;;;;;5.22;1.05;;;25.50;99.90;;;;;;4665474;30;20058;-83
2022/06/28 09:25:49;;;;;;;3.88;1.17;;;25.60;99.90;;;;;;4665277;30;20125;-83
2022/06/28 09:28:29;;;;;;;6.78;1.00;;;25.60;99.90;;;;;;4664380;30;20148;-83
2022/06/28 09:31:19;;;;;;;6.22;1.42;;;25.60;99.90;;;;;;4663894;30;20506;-81
2022/06/28 09:34:04;;;;;;;4.70;1.40;;;25.60;99.90;;;;;;4665256;30;20050;-82
2022/06/28 09:36:39;;;;;;;7.80;1.30;;;25.50;99.90;;;;;;4664258;30;20054;-82
2022/06/28 09:39:18;;;;;;;6.60;1.35;;;25.60;99.90;;;;;;4647565;30;20050;-83
2022/06/28 09:41:50;;;;;;;5.57;1.25;;;25.50;99.90;;;;;;4649648;30;20046;-84
2022/06/28 09:44:17;;;;;;;4.00;1.10;;;25.20;99.90;;;;;;4664867;30;20051;-84
2022/06/28 09:46:44;;;;;;;5.00;1.10;;;25.00;99.90;;;;;;4665075;30;20490;-85
2022/06/28 09:49:10;;;;;;;4.03;1.10;;;25.10;99.90;;;;;;4644456;30;20046;-82
2022/06/28 09:51:37;;;;;;;4.15;1.10;;;25.40;99.90;;;;;;4662551;30;20046;-83
2022/06/28 09:54:08;;;;;;;5.40;1.40;;;25.60;99.90;;;;;;4649018;30;20066;-84
2022/06/28 09:56:39;;;;;;;4.88;1.17;;;25.80;99.90;;;;;;4664102;30;20050;-83
2022/06/28 09:59:06;;;;;;;4.57;1.13;;;25.80;99.90;;;;;;4663785;30;20047;-85
2022/06/28 10:01:33;;;;;;;4.15;1.20;;;25.90;99.90;;;;;;4664084;30;20050;-77
2022/06/28 10:04:00;;;;;;;5.18;1.17;;;25.70;99.90;;;;;;4663472;30;20042;-78
2022/06/28 10:06:26;;;;;;;2.28;0.90;;;25.60;99.90;;;;;;4664193;30;20046;-80
2022/06/28 10:08:52;;;;;;;4.78;1.20;;;25.40;99.90;;;;;;4650593;30;20108;-82
2022/06/28 10:11:18;;;;;;;3.53;1.20;;;25.30;99.90;;;;;;4650964;30;20046;-82
2022/06/28 10:16:58;;;;;;;5.78;0.90;;;25.70;99.90;;;;;;4663428;30;20075;-81
2022/06/28 10:19:25;;;;;;;4.97;1.15;;;26.10;99.90;;;;;;4645928;30;20331;-86
2022/06/28 10:21:54;;;;;;;3.50;1.00;;;26.30;99.90;;;;;;4650618;30;20081;-84
2022/06/28 10:24:20;;;;;;;5.47;0.85;;;26.50;99.90;;;;;;4662828;30;20058;-85
2022/06/28 10:27:12;;;;;;;4.55;0.90;;;26.40;99.90;;;;;;4648809;30;20051;-84
2022/06/28 10:30:09;;;;;;;3.40;0.80;;;26.10;94.40;;;;;;4650100;30;20042;-85
2022/06/28 10:32:43;;;;;;;3.85;1.00;;;26.20;99.90;;;;;;4664235;30;20559;-84
2022/06/28 10:35:09;;;;;;;3.35;0.80;;;26.50;99.90;;;;;;4649516;30;20500;-84
2022/06/28 10:37:35;;;;;;;3.53;1.02;;;26.90;99.90;;;;;;4644423;30;20092;-84
2022/06/28 10:40:22;;;;;;;4.13;0.95;;;27.00;99.90;;;;;;4661538;30;20397;-83
2022/06/28 10:42:53;;;;;;;3.70;1.17;;;27.00;87.20;;;;;;4661955;30;20524;-82
2022/06/28 10:45:23;;;;;;;2.92;0.70;;;27.00;99.90;;;;;;4662016;30;20038;-83
2022/06/28 10:48:07;;;;;;;4.53;1.10;;;26.90;99.20;;;;;;4649566;30;20059;-82
2022/06/28 10:51:00;;;;;;;4.28;1.27;;;26.60;95.70;;;;;;4650307;30;20108;-83
2022/06/28 10:53:33;;;;;;;;;;;26.60;92.80;;;;;;4650664;30;20082;-84
2022/06/28 10:56:28;;;;;;;3.03;0.90;;;26.70;78.00;;;;;;4649081;30;20172;-80
2022/06/28 10:59:05;;;;;;;3.70;0.77;;;26.70;85.10;;;;;;4637085;30;20054;-86
2022/06/28 11:01:40;;;;;;;2.67;0.88;;;26.80;97.10;;;;;;4649104;30;20054;-89
2022/06/28 11:04:23;;;;;;;3.63;0.90;;;27.00;82.10;;;;;;4663898;30;20121;-84
2022/06/28 11:06:58;;;;;;;4.95;1.00;;;26.90;77.70;;;;;;4648916;30;20397;-85
2022/06/28 11:09:48;;;;;;;3.53;0.82;;;27.00;86.20;;;;;;4657909;30;20397;-86
2022/06/28 11:12:37;;;;;;;4.10;0.90;;;27.10;76.10;;;;;;4674525;30;20050;-85
2022/06/28 11:15:12;;;;;;;3.00;0.98;;;27.10;68.70;;;;;;4663583;30;20116;-86
2022/06/28 11:17:43;;;;;;;4.15;1.13;;;27.30;84.00;;;;;;4661023;30;20053;-86
2022/06/28 11:20:10;;;;;;;2.45;0.80;;;27.40;76.60;;;;;;4647340;30;20050;-85
2022/06/28 11:22:49;;;;;;;4.03;0.90;;;27.40;71.90;;;;;;4660443;30;20112;-87
2022/06/28 11:25:22;;;;;;;2.80;0.90;;;27.40;68.40;;;;;;4662704;30;20046;-86
2022/06/28 11:27:52;;;;;;;2.75;0.90;;;27.30;70.20;;;;;;4649100;30;20046;-86
2022/06/28 11:30:18;;;;;;;2.95;0.90;;;27.30;70.50;;;;;;4649587;30;20050;-86
2022/06/28 11:32:47;;;;;;;4.28;0.88;;;27.30;74.40;;;;;;4649123;30;20101;-86
2022/06/28 11:35:19;;;;;;;4.30;1.00;;;27.40;78.70;;;;;;4662599;30;20050;-83
2022/06/28 11:37:52;;;;;;;2.97;1.00;;;27.60;74.80;;;;;;4647916;30;20053;-83
2022/06/28 11:40:25;;;;;;;4.53;1.08;;;27.40;70.60;;;;;;4661941;30;20049;-83
2022/06/28 11:43:26;;;;;;;3.55;1.00;;;27.00;73.40;;;;;;4648985;30;20052;-84
2022/06/28 11:45:53;;;;;;;4.10;1.00;;;26.30;73.90;;;;;;4660690;30;20412;-83
2022/06/28 11:48:28;;;;;;;4.40;1.00;;;26.10;78.90;;;;;;4648587;30;20053;-83
2022/06/28 11:50:56;;;;;;;5.65;1.20;;;26.40;75.80;;;;;;4661121;30;20042;-83
2022/06/28 11:53:22;;;;;;;4.43;0.90;;;26.70;73.70;;;;;;4649106;30;20058;-83
2022/06/28 11:55:58;;;;;;;4.68;1.08;;;26.70;73.30;;;;;;4649332;30;20133;-84
2022/06/28 11:58:38;;;;;;;3.38;0.80;;;26.60;70.70;;;;;;4647845;30;20408;-84
2022/06/28 12:01:07;;;;;;;3.40;1.05;;;26.70;65.80;;;;;;4641388;30;20058;-83
2022/06/28 12:03:43;;;;;;;2.70;0.98;;;26.60;66.70;;;;;;4647799;30;20058;-83
2022/06/28 12:06:28;;;;;;;3.22;1.00;;;26.40;67.40;;;;;;4663244;30;20063;-83
2022/06/28 12:09:05;;;;;;;5.18;1.10;;;26.30;67.10;;;;;;4649257;30;20081;-83
2022/06/28 12:11:33;;;;;;;3.88;0.90;;;26.30;69.50;;;;;;4648463;30;20042;-83
2022/06/28 12:14:12;;;;;;;3.35;1.00;;;26.00;74.40;;;;;;4648445;30;20054;-83
2022/06/28 12:16:48;;;;;;;5.03;1.20;;;26.00;76.30;;;;;;4662380;30;20101;-86
2022/06/28 12:19:15;;;;;;;5.70;0.95;;;26.10;72.90;;;;;;4646648;30;20109;-84
2022/06/28 12:22:07;;;;;;;5.22;1.27;;;26.20;71.60;;;;;;4661750;30;20503;-84
2022/06/28 12:24:45;;;;;;;3.78;0.93;;;26.30;65.80;;;;;;4643022;30;20058;-84
2022/06/28 12:27:13;;;;;;;3.05;0.90;;;26.30;66.30;;;;;;4645816;30;20500;-83
2022/06/28 12:29:39;;;;;;;4.85;1.05;;;26.30;68.40;;;;;;4658945;30;20047;-83
2022/06/28 12:32:05;;;;;;;4.38;0.90;;;26.50;70.10;;;;;;4633087;30;20053;-84
2022/06/28 12:34:31;;;;;;;4.40;1.10;;;26.50;68.80;;;;;;4664072;30;20043;-83
2022/06/28 12:36:57;;;;;;;3.90;1.00;;;26.70;67.80;;;;;;4649335;30;20050;-84
2022/06/28 12:39:22;;;;;;;5.72;1.17;;;26.90;69.60;;;;;;4663194;30;20042;-83
2022/06/28 12:41:48;;;;;;;4.88;1.15;;;26.80;69.30;;;;;;4665237;30;20077;-81
2022/06/28 12:44:15;;;;;;;4.32;1.48;;;26.40;68.30;;;;;;4651044;30;20046;-81
2022/06/28 12:46:41;;;;;;;5.80;0.80;;;26.00;68.40;;;;;;4665894;30;20134;-81
2022/06/28 12:49:07;;;;;;;4.43;1.00;;;25.80;65.40;;;;;;4665967;30;20408;-81
2022/06/28 12:51:33;;;;;;;4.88;0.90;;;25.40;66.20;;;;;;4664485;30;20086;-81
2022/06/28 12:53:59;;;;;;;3.55;0.90;;;25.10;68.70;;;;;;4650894;30;20054;-81
2022/06/28 12:56:25;;;;;;;3.72;0.90;;;24.90;72.70;;;;;;4665187;30;20054;-81